createdAt,value
2019-01-25T00:01:02.117Z,-2.50
2019-01-25T00:03:29.920Z,-2.80
2019-01-25T00:05:58.129Z,-3.00
2019-01-25T00:11:28.490Z,-3.30
2019-01-25T00:13:56.338Z,-3.50
2019-01-25T00:16:24.471Z,-3.40
2019-01-25T00:18:52.516Z,-3.50
2019-01-25T00:21:21.020Z,-3.40
2019-01-25T00:23:49.111Z,-3.40
2019-01-25T00:26:17.163Z,-3.50
2019-01-25T00:28:45.493Z,-3.60
2019-01-25T00:31:13.913Z,-3.70
2019-01-25T00:33:42.130Z,-3.80
2019-01-25T00:36:14.163Z,-3.90
2019-01-25T00:38:42.118Z,-4.00
2019-01-25T00:41:10.889Z,-4.00
2019-01-25T00:43:38.943Z,-4.00
2019-01-25T00:46:07.878Z,-4.10
2019-01-25T00:48:35.949Z,-4.00
2019-01-25T00:51:04.453Z,-4.00
2019-01-25T00:53:32.501Z,-4.00
2019-01-25T00:56:01.071Z,-3.90
2019-01-25T00:58:29.056Z,-3.80
2019-01-25T01:00:57.354Z,-3.90
2019-01-25T01:03:26.185Z,-4.00
2019-01-25T01:06:00.595Z,-4.10
2019-01-25T01:08:28.699Z,-4.20
2019-01-25T01:10:56.680Z,-4.30
2019-01-25T01:13:24.326Z,-4.40
2019-01-25T01:15:52.565Z,-4.50
2019-01-25T01:18:20.375Z,-4.50
2019-01-25T01:20:48.158Z,-4.50
2019-01-25T01:23:17.006Z,-4.50
2019-01-25T01:25:44.792Z,-4.60
2019-01-25T01:28:12.657Z,-4.60
2019-01-25T01:30:40.408Z,-4.80
2019-01-25T01:33:08.597Z,-4.90
2019-01-25T01:35:36.665Z,-4.90
2019-01-25T01:38:04.526Z,-4.90
2019-01-25T01:40:32.597Z,-5.00
2019-01-25T01:43:00.462Z,-5.10
2019-01-25T01:45:29.003Z,-5.10
2019-01-25T01:47:56.686Z,-5.10
2019-01-25T01:50:24.830Z,-4.90
2019-01-25T01:52:53.050Z,-4.90
2019-01-25T01:55:20.813Z,-4.90
2019-01-25T02:00:57.846Z,-5.00
2019-01-25T02:03:26.944Z,-5.10
2019-01-25T02:05:57.555Z,-5.10
2019-01-25T02:08:25.343Z,-5.10
2019-01-25T02:10:53.212Z,-5.10
2019-01-25T02:13:20.962Z,-5.20
2019-01-25T02:15:49.346Z,-5.00
2019-01-25T02:18:17.607Z,-4.80
2019-01-25T02:20:45.826Z,-4.60
2019-01-25T02:23:13.793Z,-4.40
2019-01-25T02:25:42.446Z,-4.10
2019-01-25T02:28:10.238Z,-3.90
2019-01-25T02:30:38.790Z,-3.80
2019-01-25T02:33:08.057Z,-3.70
2019-01-25T02:35:37.004Z,-3.60
2019-01-25T02:38:05.281Z,-3.50
2019-01-25T02:40:39.074Z,-3.30
2019-01-25T02:43:04.414Z,-3.20
2019-01-25T02:45:32.741Z,-2.90
2019-01-25T02:48:00.646Z,-2.70
2019-01-25T02:51:07.690Z,-2.40
2019-01-25T02:56:28.406Z,-2.00
2019-01-25T02:58:56.248Z,-1.70
2019-01-25T03:01:24.013Z,-1.60
2019-01-25T03:03:52.107Z,-1.50
2019-01-25T03:06:20.356Z,-1.40
2019-01-25T03:08:48.522Z,-1.40
2019-01-25T03:11:16.292Z,-1.30
2019-01-25T03:13:43.946Z,-1.30
2019-01-25T03:16:11.822Z,-1.30
2019-01-25T03:18:39.991Z,-1.20
2019-01-25T03:21:07.752Z,-1.20
2019-01-25T03:23:35.405Z,-1.10
2019-01-25T03:26:03.720Z,-1.00
2019-01-25T03:28:31.417Z,-0.90
2019-01-25T03:30:59.171Z,-0.90
2019-01-25T03:33:26.887Z,-0.90
2019-01-25T03:35:54.650Z,-0.90
2019-01-25T03:38:22.348Z,-0.90
2019-01-25T03:40:55.299Z,-0.90
2019-01-25T03:43:21.926Z,-0.70
2019-01-25T03:45:59.862Z,-0.70
2019-01-25T03:48:28.040Z,-0.70
2019-01-25T03:50:56.156Z,-0.70
2019-01-25T03:53:23.983Z,-0.70
2019-01-25T03:55:51.780Z,-0.70
2019-01-25T03:58:19.964Z,-0.70
2019-01-25T04:00:50.117Z,-0.70
2019-01-25T04:03:18.110Z,-0.70
2019-01-25T04:05:45.952Z,-0.60
2019-01-25T04:08:13.921Z,-0.60
2019-01-25T04:10:41.993Z,-0.50
2019-01-25T04:13:09.894Z,-0.40
2019-01-25T04:15:37.956Z,-0.40
2019-01-25T04:18:06.565Z,-0.30
2019-01-25T04:20:34.349Z,-0.20
2019-01-25T04:23:02.365Z,-0.10
2019-01-25T04:25:30.183Z,0.00
2019-01-25T04:27:58.332Z,0.10
2019-01-25T04:30:27.797Z,0.10
2019-01-25T04:32:56.454Z,0.10
2019-01-25T04:35:24.577Z,0.20
2019-01-25T04:37:52.858Z,0.20
2019-01-25T04:40:21.520Z,0.20
2019-01-25T04:45:28.981Z,0.20
2019-01-25T04:47:56.939Z,0.20
2019-01-25T04:50:25.621Z,0.20
2019-01-25T04:52:54.408Z,0.20
2019-01-25T04:55:30.563Z,0.20
2019-01-25T04:58:28.135Z,0.30
2019-01-25T05:01:04.766Z,0.40
2019-01-25T05:03:32.442Z,0.40
2019-01-25T05:06:00.094Z,0.40
2019-01-25T05:08:27.902Z,0.40
2019-01-25T05:10:55.558Z,0.50
2019-01-25T05:13:23.224Z,0.50
2019-01-25T05:15:50.878Z,0.50
2019-01-25T05:18:18.631Z,0.50
2019-01-25T05:20:46.370Z,0.60
2019-01-25T05:23:14.493Z,0.60
2019-01-25T05:25:42.141Z,0.60
2019-01-25T05:28:14.364Z,0.50
2019-01-25T05:30:51.199Z,0.60
2019-01-25T05:33:18.889Z,0.60
2019-01-25T05:38:25.117Z,0.60
2019-01-25T05:40:53.753Z,0.50
2019-01-25T05:43:22.004Z,0.60
2019-01-25T05:45:50.846Z,0.50
2019-01-25T05:48:27.886Z,0.50
2019-01-25T05:50:59.951Z,0.50
2019-01-25T05:53:27.740Z,0.50
2019-01-25T05:55:55.974Z,0.50
2019-01-25T05:58:24.146Z,0.60
2019-01-25T06:00:51.943Z,0.60
2019-01-25T06:03:20.849Z,0.60
2019-01-25T06:05:48.679Z,0.60
2019-01-25T06:08:30.861Z,0.60
2019-01-25T06:11:00.724Z,0.60
2019-01-25T06:13:28.595Z,0.60
2019-01-25T06:15:56.518Z,0.60
2019-01-25T06:18:24.392Z,0.50
2019-01-25T06:20:53.715Z,0.60
2019-01-25T06:23:22.202Z,0.60
2019-01-25T06:25:54.505Z,0.60
2019-01-25T06:28:22.769Z,0.60
2019-01-25T06:30:51.560Z,0.60
2019-01-25T06:33:19.579Z,0.60
2019-01-25T06:35:49.102Z,0.60
2019-01-25T06:38:16.952Z,0.60
2019-01-25T06:40:44.723Z,0.60
2019-01-25T06:43:12.439Z,0.60
2019-01-25T06:45:40.232Z,0.60
2019-01-25T06:48:08.310Z,0.60
2019-01-25T06:51:03.665Z,0.60
2019-01-25T06:53:32.103Z,0.60
2019-01-25T06:55:59.966Z,0.70
2019-01-25T06:59:02.434Z,0.70
2019-01-25T07:01:47.986Z,0.70
2019-01-25T07:04:15.651Z,0.70
2019-01-25T07:06:43.313Z,0.70
2019-01-25T07:09:12.116Z,0.70
2019-01-25T07:11:42.176Z,0.70
2019-01-25T07:14:10.672Z,0.70
2019-01-25T07:16:38.560Z,0.80
2019-01-25T07:19:06.547Z,0.80
2019-01-25T07:21:34.339Z,0.80
2019-01-25T07:24:02.054Z,0.80
2019-01-25T07:26:29.699Z,0.80
2019-01-25T07:28:58.323Z,0.90
2019-01-25T07:31:26.357Z,0.90
2019-01-25T07:33:54.242Z,0.90
2019-01-25T07:36:22.303Z,0.90
2019-01-25T07:38:50.007Z,0.90
2019-01-25T07:41:17.937Z,0.90
2019-01-25T07:43:45.884Z,0.90
2019-01-25T07:46:13.550Z,0.90
2019-01-25T07:48:43.791Z,0.90
2019-01-25T07:51:11.433Z,0.90
2019-01-25T07:53:39.139Z,0.90
2019-01-25T07:56:06.824Z,1.00
2019-01-25T07:58:34.745Z,1.00
2019-01-25T08:01:02.433Z,1.00
2019-01-25T08:03:30.408Z,1.00
2019-01-25T08:05:58.108Z,1.00
2019-01-25T08:08:25.814Z,0.90
2019-01-25T08:10:53.660Z,0.90
2019-01-25T08:13:21.624Z,0.90
2019-01-25T08:15:49.263Z,1.00
2019-01-25T08:18:16.954Z,1.00
2019-01-25T08:20:44.568Z,1.00
2019-01-25T08:23:13.364Z,1.00
2019-01-25T08:25:41.812Z,1.00
2019-01-25T08:28:09.759Z,1.00
2019-01-25T08:30:37.997Z,1.00
2019-01-25T08:33:06.828Z,1.00
2019-01-25T08:35:34.855Z,1.10
2019-01-25T08:38:06.364Z,1.10
2019-01-25T08:40:33.977Z,1.10
2019-01-25T08:43:01.933Z,1.10
2019-01-25T08:45:30.676Z,1.20
2019-01-25T08:47:59.411Z,1.20
2019-01-25T08:50:29.147Z,1.30
2019-01-25T08:52:57.704Z,1.30
2019-01-25T08:55:25.648Z,1.40
2019-01-25T08:57:53.245Z,1.40
2019-01-25T09:00:22.434Z,1.40
2019-01-25T09:02:50.105Z,1.50
2019-01-25T09:05:22.145Z,1.50
2019-01-25T09:07:50.125Z,1.60
2019-01-25T09:10:19.301Z,1.70
2019-01-25T09:12:46.956Z,1.80
2019-01-25T09:15:22.474Z,1.80
2019-01-25T09:17:50.378Z,1.90
2019-01-25T09:20:19.453Z,1.90
2019-01-25T09:22:50.187Z,1.90
2019-01-25T09:25:17.872Z,1.90
2019-01-25T09:27:46.649Z,1.90
2019-01-25T09:30:16.491Z,1.90
2019-01-25T09:32:44.349Z,1.90
2019-01-25T09:35:18.670Z,1.90
2019-01-25T09:37:46.868Z,2.00
2019-01-25T09:40:17.834Z,2.00
2019-01-25T09:42:45.875Z,2.20
2019-01-25T09:45:13.888Z,2.20
2019-01-25T09:47:42.163Z,2.40
2019-01-25T09:50:19.143Z,2.50
2019-01-25T09:52:48.620Z,2.70
2019-01-25T09:55:20.219Z,2.70
2019-01-25T09:57:49.735Z,2.60
2019-01-25T10:00:50.235Z,2.40
2019-01-25T10:03:19.124Z,2.40
2019-01-25T10:05:47.096Z,2.30
2019-01-25T10:08:15.263Z,2.40
2019-01-25T10:10:43.132Z,2.40
2019-01-25T10:13:11.206Z,2.40
2019-01-25T10:15:38.822Z,2.40
2019-01-25T10:18:08.113Z,2.50
2019-01-25T10:20:35.779Z,2.60
2019-01-25T10:23:03.467Z,2.70
2019-01-25T10:25:31.456Z,2.70
2019-01-25T10:27:59.537Z,2.70
2019-01-25T10:30:27.217Z,2.70
2019-01-25T10:32:54.897Z,2.70
2019-01-25T10:35:23.387Z,2.70
2019-01-25T10:37:51.319Z,2.70
2019-01-25T10:40:19.469Z,2.80
2019-01-25T10:42:53.168Z,2.70
2019-01-25T10:45:20.789Z,2.70
2019-01-25T10:47:48.978Z,2.70
2019-01-25T10:50:17.398Z,2.80
2019-01-25T10:52:45.084Z,2.70
2019-01-25T10:55:13.289Z,2.80
2019-01-25T10:57:41.821Z,2.90
2019-01-25T11:00:12.497Z,2.90
2019-01-25T11:02:40.166Z,2.90
2019-01-25T11:05:10.391Z,2.80
2019-01-25T11:07:38.045Z,2.90
2019-01-25T11:10:06.337Z,2.80
2019-01-25T11:12:33.980Z,2.80
2019-01-25T11:15:02.026Z,2.80
2019-01-25T11:17:36.258Z,2.80
2019-01-25T11:19:59.111Z,2.80
2019-01-25T11:22:26.769Z,2.90
2019-01-25T11:24:54.818Z,3.00
2019-01-25T11:27:22.410Z,2.90
2019-01-25T11:29:50.089Z,2.90
2019-01-25T11:32:17.720Z,3.00
2019-01-25T11:34:45.395Z,2.80
2019-01-25T11:37:13.024Z,2.90
2019-01-25T11:39:40.712Z,2.90
2019-01-25T11:42:08.338Z,3.00
2019-01-25T11:44:36.000Z,3.00
2019-01-25T11:47:04.133Z,3.00
2019-01-25T11:49:32.316Z,3.10
2019-01-25T11:52:00.957Z,3.20
2019-01-25T11:54:28.893Z,3.20
2019-01-25T11:56:56.562Z,3.30
2019-01-25T11:59:24.163Z,3.20
2019-01-25T12:01:51.836Z,3.20
2019-01-25T12:04:19.442Z,3.10
2019-01-25T12:06:47.261Z,3.10
2019-01-25T12:09:14.825Z,3.00
2019-01-25T12:11:42.510Z,3.10
2019-01-25T12:14:10.120Z,3.10
2019-01-25T12:16:38.250Z,3.10
2019-01-25T12:19:05.870Z,3.20
2019-01-25T12:21:34.542Z,3.20
2019-01-25T12:24:02.673Z,3.30
2019-01-25T12:26:30.373Z,3.30
2019-01-25T12:28:58.442Z,3.20
2019-01-25T12:31:26.851Z,3.20
2019-01-25T12:33:54.869Z,3.10
2019-01-25T12:36:22.880Z,3.20
2019-01-25T12:38:50.860Z,3.20
2019-01-25T12:41:18.844Z,3.20
2019-01-25T12:43:46.506Z,3.20
2019-01-25T12:46:14.200Z,3.20
2019-01-25T12:48:41.844Z,3.20
2019-01-25T12:51:22.361Z,3.20
2019-01-25T12:53:50.088Z,3.10
2019-01-25T12:56:18.349Z,3.20
2019-01-25T12:58:46.403Z,3.20
2019-01-25T13:01:14.170Z,3.20
2019-01-25T13:06:37.948Z,3.20
2019-01-25T13:09:08.638Z,3.20
2019-01-25T13:11:36.295Z,3.20
2019-01-25T13:14:04.067Z,3.10
2019-01-25T13:16:31.763Z,3.10
2019-01-25T13:18:59.435Z,3.00
2019-01-25T13:21:27.054Z,3.00
2019-01-25T13:23:54.736Z,3.00
2019-01-25T13:26:22.387Z,3.00
2019-01-25T13:28:50.324Z,3.00
2019-01-25T13:31:17.959Z,3.00
2019-01-25T13:33:45.628Z,3.00
2019-01-25T13:36:13.411Z,2.90
2019-01-25T13:38:41.229Z,3.00
2019-01-25T13:41:09.193Z,2.90
2019-01-25T13:43:39.216Z,2.90
2019-01-25T13:46:06.367Z,2.90
2019-01-25T13:48:34.096Z,2.90
2019-01-25T13:51:03.153Z,2.90
2019-01-25T13:53:30.783Z,2.90
2019-01-25T13:55:58.836Z,2.90
2019-01-25T13:58:26.939Z,2.90
2019-01-25T14:00:55.011Z,2.90
2019-01-25T14:03:22.679Z,2.90
2019-01-25T14:05:50.630Z,2.80
2019-01-25T14:08:19.237Z,2.80
2019-01-25T14:10:47.378Z,2.80
2019-01-25T14:13:17.424Z,2.70
2019-01-25T14:15:45.563Z,2.70
2019-01-25T14:18:13.378Z,2.70
2019-01-25T14:20:41.181Z,2.70
2019-01-25T14:23:08.979Z,2.70
2019-01-25T14:25:36.831Z,2.70
2019-01-25T14:28:04.660Z,2.70
2019-01-25T14:30:34.806Z,2.70
2019-01-25T14:33:07.793Z,2.60
2019-01-25T14:35:36.293Z,2.60
2019-01-25T14:38:05.405Z,2.60
2019-01-25T14:40:33.216Z,2.60
2019-01-25T14:43:01.580Z,2.60
2019-01-25T14:45:29.861Z,2.60
2019-01-25T14:47:57.637Z,2.60
2019-01-25T14:50:26.514Z,2.60
2019-01-25T14:52:54.450Z,2.60
2019-01-25T14:55:22.453Z,2.60
2019-01-25T14:57:50.645Z,2.70
2019-01-25T15:00:18.556Z,2.70
2019-01-25T15:02:49.739Z,2.70
2019-01-25T15:05:18.295Z,2.70
2019-01-25T15:07:46.100Z,2.70
2019-01-25T15:10:19.055Z,2.70
2019-01-25T15:12:47.731Z,2.70
2019-01-25T15:15:15.377Z,2.70
2019-01-25T15:17:43.046Z,2.70
2019-01-25T15:20:13.960Z,2.70
2019-01-25T15:22:41.786Z,2.70
2019-01-25T15:25:10.179Z,2.80
2019-01-25T15:27:37.844Z,2.70
2019-01-25T15:30:07.368Z,2.80
2019-01-25T15:32:35.033Z,2.70
2019-01-25T15:35:03.881Z,2.70
2019-01-25T15:37:31.498Z,2.70
2019-01-25T15:39:59.189Z,2.70
2019-01-25T15:42:26.982Z,2.70
2019-01-25T15:44:54.646Z,2.70
2019-01-25T15:47:22.339Z,2.70
2019-01-25T15:49:50.025Z,2.70
2019-01-25T15:52:17.964Z,2.70
2019-01-25T15:54:45.620Z,2.70
2019-01-25T15:57:13.669Z,2.70
2019-01-25T15:59:43.172Z,2.70
2019-01-25T16:02:12.439Z,2.70
2019-01-25T16:04:40.068Z,2.70
2019-01-25T16:07:08.072Z,2.70
2019-01-25T16:09:36.069Z,2.70
2019-01-25T16:12:04.289Z,2.80
2019-01-25T16:14:32.293Z,2.80
2019-01-25T16:17:02.054Z,2.80
2019-01-25T16:19:29.710Z,2.80
2019-01-25T16:21:57.417Z,2.80
2019-01-25T16:24:25.052Z,2.90
2019-01-25T16:26:53.000Z,2.90
2019-01-25T16:29:20.678Z,2.80
2019-01-25T16:31:49.720Z,2.90
2019-01-25T16:34:17.396Z,2.80
2019-01-25T16:36:45.355Z,2.80
2019-01-25T16:39:13.315Z,2.90
2019-01-25T16:41:40.913Z,2.90
2019-01-25T16:44:08.887Z,2.90
2019-01-25T16:46:37.862Z,2.90
2019-01-25T16:49:05.508Z,2.90
2019-01-25T16:51:33.170Z,2.90
2019-01-25T16:54:00.861Z,2.90
2019-01-25T16:56:28.509Z,2.90
2019-01-25T16:58:56.159Z,2.90
2019-01-25T17:01:23.815Z,2.90
2019-01-25T17:09:24.603Z,3.00
2019-01-25T17:11:52.674Z,3.00
2019-01-25T17:14:33.325Z,3.00
2019-01-25T17:16:56.827Z,3.00
2019-01-25T17:19:24.541Z,3.00
2019-01-25T17:21:52.186Z,3.00
2019-01-25T17:24:20.214Z,3.10
2019-01-25T17:26:47.838Z,3.10
2019-01-25T17:29:15.505Z,3.00
2019-01-25T17:31:43.160Z,3.00
2019-01-25T17:34:10.837Z,3.10
2019-01-25T17:36:38.824Z,3.10
2019-01-25T17:39:12.347Z,3.20
2019-01-25T17:41:39.956Z,3.20
2019-01-25T17:47:34.532Z,3.20
2019-01-25T17:50:02.182Z,3.20
2019-01-25T17:52:29.818Z,3.30
2019-01-25T17:54:58.683Z,3.30
2019-01-25T17:57:26.669Z,3.30
2019-01-25T17:59:54.522Z,3.30
2019-01-25T18:02:22.333Z,3.30
2019-01-25T18:04:50.015Z,3.40
2019-01-25T18:07:18.004Z,3.40
2019-01-25T18:09:45.912Z,3.50
2019-01-25T18:12:13.898Z,3.50
2019-01-25T18:14:49.170Z,3.50
2019-01-25T18:17:12.964Z,3.60
2019-01-25T18:19:40.620Z,3.60
2019-01-25T18:22:08.304Z,3.60
2019-01-25T18:24:35.996Z,3.70
2019-01-25T18:27:04.143Z,3.70
2019-01-25T18:29:40.198Z,3.70
2019-01-25T18:32:08.182Z,3.80
2019-01-25T18:34:36.268Z,3.80
2019-01-25T18:37:05.228Z,3.90
2019-01-25T18:39:32.997Z,3.90
2019-01-25T18:42:01.083Z,3.90
2019-01-25T18:44:30.137Z,3.90
2019-01-25T18:46:57.869Z,4.00
2019-01-25T18:49:25.511Z,4.00
2019-01-25T18:55:02.553Z,4.10
2019-01-25T18:57:30.605Z,4.10
2019-01-25T19:00:00.449Z,4.10
2019-01-25T19:02:29.746Z,4.00
2019-01-25T19:04:57.526Z,4.00
2019-01-25T19:07:27.603Z,4.10
2019-01-25T19:09:55.268Z,4.10
2019-01-25T19:12:24.084Z,4.20
2019-01-25T19:14:51.775Z,4.20
2019-01-25T19:17:19.848Z,4.20
2019-01-25T19:19:47.461Z,4.20
2019-01-25T19:22:15.474Z,4.30
2019-01-25T19:24:43.532Z,4.30
2019-01-25T19:27:11.601Z,4.40
2019-01-25T19:29:39.261Z,4.50
2019-01-25T19:32:07.304Z,4.60
2019-01-25T19:34:35.295Z,4.60
2019-01-25T19:37:03.093Z,4.70
2019-01-25T19:39:30.703Z,4.80
2019-01-25T19:41:58.671Z,4.90
2019-01-25T19:44:26.306Z,4.80
2019-01-25T19:46:54.020Z,4.90
2019-01-25T19:49:22.244Z,4.90
2019-01-25T19:51:50.369Z,5.00
2019-01-25T19:54:18.321Z,5.00
2019-01-25T19:56:46.067Z,5.00
2019-01-25T19:59:14.076Z,5.10
2019-01-25T20:01:41.611Z,5.10
2019-01-25T20:04:09.409Z,5.10
2019-01-25T20:06:37.050Z,5.10
2019-01-25T20:09:08.460Z,5.20
2019-01-25T20:11:36.516Z,5.20
2019-01-25T20:14:04.792Z,5.30
2019-01-25T20:16:38.413Z,5.20
2019-01-25T20:19:06.119Z,5.30
2019-01-25T20:21:33.750Z,5.30
2019-01-25T20:24:01.547Z,5.30
2019-01-25T20:26:29.204Z,5.30
2019-01-25T20:28:57.027Z,5.40
2019-01-25T20:31:24.772Z,5.40
2019-01-25T20:33:52.879Z,5.50
2019-01-25T20:36:20.835Z,5.50
2019-01-25T20:38:48.455Z,5.60
2019-01-25T20:41:24.116Z,5.60
2019-01-25T20:43:52.149Z,5.70
2019-01-25T20:46:20.176Z,5.70
2019-01-25T20:48:48.250Z,5.70
2019-01-25T20:51:15.878Z,5.80
2019-01-25T20:53:44.233Z,5.80
2019-01-25T20:56:21.341Z,5.90
2019-01-25T20:58:50.680Z,5.90
2019-01-25T21:01:19.754Z,6.00
2019-01-25T21:03:47.472Z,6.00
2019-01-25T21:06:15.105Z,6.00
2019-01-25T21:08:42.793Z,6.00
2019-01-25T21:11:10.820Z,6.00
2019-01-25T21:13:38.869Z,6.00
2019-01-25T21:16:08.289Z,6.00
2019-01-25T21:18:36.625Z,6.00
2019-01-25T21:21:05.230Z,6.10
2019-01-25T21:23:32.967Z,6.10
2019-01-25T21:26:00.670Z,6.20
2019-01-25T21:28:28.289Z,6.20
2019-01-25T21:30:55.967Z,6.20
2019-01-25T21:33:23.651Z,6.20
2019-01-25T21:35:52.078Z,6.20
2019-01-25T21:38:19.717Z,6.20
2019-01-25T21:40:48.592Z,6.20
2019-01-25T21:43:16.235Z,6.20
2019-01-25T21:45:44.255Z,6.20
2019-01-25T21:48:15.064Z,6.20
2019-01-25T21:50:43.531Z,6.20
2019-01-25T21:53:11.661Z,6.30
2019-01-25T21:55:39.274Z,6.40
2019-01-25T21:58:06.937Z,6.40
2019-01-25T22:00:35.477Z,6.50
2019-01-25T22:03:04.003Z,6.50
2019-01-25T22:05:31.658Z,6.40
2019-01-25T22:07:59.313Z,6.30
2019-01-25T22:10:39.123Z,6.30
2019-01-25T22:13:06.862Z,6.30
2019-01-25T22:15:34.763Z,6.30
2019-01-25T22:18:02.950Z,6.30
2019-01-25T22:20:30.706Z,6.40
2019-01-25T22:22:58.433Z,6.30
2019-01-25T22:25:27.575Z,6.30
2019-01-25T22:27:56.576Z,6.30
2019-01-25T22:30:24.885Z,6.30
2019-01-25T22:32:55.068Z,6.30
2019-01-25T22:35:23.147Z,6.30
2019-01-25T22:37:50.864Z,6.30
2019-01-25T22:40:24.427Z,6.30
2019-01-25T22:42:52.229Z,6.30
2019-01-25T22:45:22.043Z,6.30
2019-01-25T22:47:50.113Z,6.40
2019-01-25T22:50:20.301Z,6.40
2019-01-25T22:52:47.912Z,6.50
2019-01-25T22:55:16.159Z,6.40
2019-01-25T22:57:43.815Z,6.30
2019-01-25T23:00:58.114Z,6.40
2019-01-25T23:03:48.042Z,6.40
2019-01-25T23:06:59.466Z,6.50
2019-01-25T23:09:30.139Z,6.50
2019-01-25T23:11:57.809Z,6.50
2019-01-25T23:14:25.457Z,6.50
2019-01-25T23:16:53.113Z,6.60
2019-01-25T23:19:20.788Z,6.60
2019-01-25T23:21:48.438Z,6.60
2019-01-25T23:24:16.094Z,6.50
2019-01-25T23:26:43.742Z,6.50
2019-01-25T23:29:11.711Z,6.50
2019-01-25T23:31:39.643Z,6.50
2019-01-25T23:34:07.628Z,6.50
2019-01-25T23:36:35.301Z,6.40
2019-01-25T23:39:05.624Z,6.40
2019-01-25T23:41:33.245Z,6.40
2019-01-25T23:44:02.343Z,6.30
2019-01-25T23:46:29.983Z,6.30
2019-01-25T23:48:57.990Z,6.20
2019-01-25T23:51:25.611Z,6.30
2019-01-25T23:53:53.273Z,6.30
2019-01-25T23:56:20.885Z,6.30
2019-01-25T23:58:49.637Z,6.20
